sensor_id;sensor_type;location;lat;lon;timestamp;P1;durP1;ratioP1;P2;durP2;ratioP2
1677;SDS011;6034;46.864;15.216;2023-07-24T04:30:14;11.43;;;7.73;;
1677;SDS011;6034;46.864;15.216;2023-07-24T04:32:42;11.33;;;7.27;;
1677;SDS011;6034;46.864;15.216;2023-07-24T04:35:11;11.90;;;7.77;;
1677;SDS011;6034;46.864;15.216;2023-07-24T04:37:38;12.10;;;7.50;;
1677;SDS011;6034;46.864;15.216;2023-07-24T04:40:06;9.20;;;7.60;;
1677;SDS011;6034;46.864;15.216;2023-07-24T04:42:34;9.20;;;7.90;;
1677;SDS011;6034;46.864;15.216;2023-07-24T04:45:01;9.47;;;7.80;;
1677;SDS011;6034;46.864;15.216;2023-07-24T04:47:30;9.47;;;7.27;;
1677;SDS011;6034;46.864;15.216;2023-07-24T04:49:57;11.10;;;8.10;;
1677;SDS011;6034;46.864;15.216;2023-07-24T04:52:24;10.87;;;8.80;;
1677;SDS011;6034;46.864;15.216;2023-07-24T04:54:51;13.87;;;8.73;;
1677;SDS011;6034;46.864;15.216;2023-07-24T04:57:18;13.43;;;8.87;;
1677;SDS011;6034;46.864;15.216;2023-07-24T04:59:46;11.07;;;8.83;;
1677;SDS011;6034;46.864;15.216;2023-07-24T05:02:13;7.93;;;7.10;;
1677;SDS011;6034;46.864;15.216;2023-07-24T05:04:42;8.70;;;7.70;;
1677;SDS011;6034;46.864;15.216;2023-07-24T05:07:09;9.57;;;8.00;;
1677;SDS011;6034;46.864;15.216;2023-07-24T05:09:36;8.83;;;7.93;;
1677;SDS011;6034;46.864;15.216;2023-07-24T05:12:04;8.73;;;7.83;;
1677;SDS011;6034;46.864;15.216;2023-07-24T05:14:32;10.67;;;7.93;;
1677;SDS011;6034;46.864;15.216;2023-07-24T05:17:00;11.70;;;8.27;;
1677;SDS011;6034;46.864;15.216;2023-07-24T05:19:27;9.47;;;7.80;;
1677;SDS011;6034;46.864;15.216;2023-07-24T05:21:56;9.30;;;7.40;;
1677;SDS011;6034;46.864;15.216;2023-07-24T05:24:24;8.50;;;7.60;;
1677;SDS011;6034;46.864;15.216;2023-07-24T05:26:51;10.50;;;8.30;;
1677;SDS011;6034;46.864;15.216;2023-07-24T05:29:18;11.20;;;7.53;;
1677;SDS011;6034;46.864;15.216;2023-07-24T05:31:46;11.03;;;7.90;;
1677;SDS011;6034;46.864;15.216;2023-07-24T05:34:13;12.37;;;7.80;;
1677;SDS011;6034;46.864;15.216;2023-07-24T05:36:40;8.30;;;7.50;;
1677;SDS011;6034;46.864;15.216;2023-07-24T05:39:10;8.80;;;7.53;;
1677;SDS011;6034;46.864;15.216;2023-07-24T05:41:37;9.97;;;7.63;;
1677;SDS011;6034;46.864;15.216;2023-07-24T05:44:04;8.87;;;7.30;;
1677;SDS011;6034;46.864;15.216;2023-07-24T05:46:31;11.60;;;8.43;;
1677;SDS011;6034;46.864;15.216;2023-07-24T05:48:59;9.83;;;8.83;;
1677;SDS011;6034;46.864;15.216;2023-07-24T05:51:26;10.27;;;8.33;;
1677;SDS011;6034;46.864;15.216;2023-07-24T05:53:54;10.47;;;7.73;;
1677;SDS011;6034;46.864;15.216;2023-07-24T05:56:22;11.00;;;7.83;;
1677;SDS011;6034;46.864;15.216;2023-07-24T05:58:49;9.40;;;8.47;;
1677;SDS011;6034;46.864;15.216;2023-07-24T06:01:17;10.77;;;8.80;;
1677;SDS011;6034;46.864;15.216;2023-07-24T06:03:44;11.10;;;8.40;;
1677;SDS011;6034;46.864;15.216;2023-07-24T06:06:11;9.07;;;8.07;;
1677;SDS011;6034;46.864;15.216;2023-07-24T06:08:40;7.60;;;6.90;;
1677;SDS011;6034;46.864;15.216;2023-07-24T06:11:07;9.10;;;8.20;;
1677;SDS011;6034;46.864;15.216;2023-07-24T06:13:37;11.80;;;7.90;;
1677;SDS011;6034;46.864;15.216;2023-07-24T06:16:04;8.77;;;7.73;;
1677;SDS011;6034;46.864;15.216;2023-07-24T06:18:32;14.30;;;9.40;;
1677;SDS011;6034;46.864;15.216;2023-07-24T06:21:00;8.80;;;7.87;;
1677;SDS011;6034;46.864;15.216;2023-07-24T06:23:28;9.90;;;8.70;;
1677;SDS011;6034;46.864;15.216;2023-07-24T06:25:55;9.63;;;8.73;;
1677;SDS011;6034;46.864;15.216;2023-07-24T06:28:23;11.60;;;9.40;;
1677;SDS011;6034;46.864;15.216;2023-07-24T06:30:54;9.20;;;7.77;;
1677;SDS011;6034;46.864;15.216;2023-07-24T06:33:22;10.87;;;9.20;;
1677;SDS011;6034;46.864;15.216;2023-07-24T06:35:49;10.63;;;8.83;;
1677;SDS011;6034;46.864;15.216;2023-07-24T06:38:17;9.00;;;7.73;;
1677;SDS011;6034;46.864;15.216;2023-07-24T06:40:46;10.30;;;9.30;;
1677;SDS011;6034;46.864;15.216;2023-07-24T06:43:13;12.00;;;9.53;;
1677;SDS011;6034;46.864;15.216;2023-07-24T06:45:41;11.53;;;8.87;;
1677;SDS011;6034;46.864;15.216;2023-07-24T06:48:12;13.17;;;9.80;;
1677;SDS011;6034;46.864;15.216;2023-07-24T06:50:39;13.13;;;9.53;;
1677;SDS011;6034;46.864;15.216;2023-07-24T06:53:07;12.17;;;10.00;;
1677;SDS011;6034;46.864;15.216;2023-07-24T06:55:35;10.37;;;9.27;;
1677;SDS011;6034;46.864;15.216;2023-07-24T06:58:02;11.23;;;8.77;;
1677;SDS011;6034;46.864;15.216;2023-07-24T07:00:29;9.07;;;8.10;;
1677;SDS011;6034;46.864;15.216;2023-07-24T07:02:57;10.03;;;8.30;;
1677;SDS011;6034;46.864;15.216;2023-07-24T07:05:25;9.30;;;8.30;;
1677;SDS011;6034;46.864;15.216;2023-07-24T07:07:53;10.50;;;9.20;;
1677;SDS011;6034;46.864;15.216;2023-07-24T07:10:20;13.60;;;9.43;;
1677;SDS011;6034;46.864;15.216;2023-07-24T07:12:47;10.70;;;8.37;;
1677;SDS011;6034;46.864;15.216;2023-07-24T07:15:14;10.10;;;8.70;;
1677;SDS011;6034;46.864;15.216;2023-07-24T07:17:41;10.13;;;8.27;;
1677;SDS011;6034;46.864;15.216;2023-07-24T07:20:09;11.30;;;8.40;;
1677;SDS011;6034;46.864;15.216;2023-07-24T07:22:38;8.90;;;7.50;;
1677;SDS011;6034;46.864;15.216;2023-07-24T07:25:05;10.00;;;8.50;;
1677;SDS011;6034;46.864;15.216;2023-07-24T07:27:33;10.53;;;8.73;;
1677;SDS011;6034;46.864;15.216;2023-07-24T07:30:00;10.23;;;8.17;;
1677;SDS011;6034;46.864;15.216;2023-07-24T07:32:27;13.10;;;8.60;;
1677;SDS011;6034;46.864;15.216;2023-07-24T07:34:55;12.30;;;8.93;;
1677;SDS011;6034;46.864;15.216;2023-07-24T07:37:22;9.10;;;8.20;;
1677;SDS011;6034;46.864;15.216;2023-07-24T07:39:51;13.07;;;8.60;;
1677;SDS011;6034;46.864;15.216;2023-07-24T07:42:18;11.00;;;9.07;;
1677;SDS011;6034;46.864;15.216;2023-07-24T07:44:45;9.80;;;8.63;;
1677;SDS011;6034;46.864;15.216;2023-07-24T07:47:12;10.00;;;8.70;;
1677;SDS011;6034;46.864;15.216;2023-07-24T07:49:40;10.30;;;9.20;;
1677;SDS011;6034;46.864;15.216;2023-07-24T07:52:08;10.27;;;9.17;;
1677;SDS011;6034;46.864;15.216;2023-07-24T07:54:37;9.70;;;8.70;;
1677;SDS011;6034;46.864;15.216;2023-07-24T07:57:06;9.23;;;7.50;;
1677;SDS011;6034;46.864;15.216;2023-07-24T07:59:33;12.33;;;8.73;;
1677;SDS011;6034;46.864;15.216;2023-07-24T08:02:01;10.73;;;9.30;;
1677;SDS011;6034;46.864;15.216;2023-07-24T08:04:28;9.97;;;8.97;;
1677;SDS011;6034;46.864;15.216;2023-07-24T08:06:55;9.90;;;8.60;;
1677;SDS011;6034;46.864;15.216;2023-07-24T08:09:23;9.27;;;8.40;;
1677;SDS011;6034;46.864;15.216;2023-07-24T08:11:50;14.33;;;9.20;;
1677;SDS011;6034;46.864;15.216;2023-07-24T08:14:19;11.07;;;8.50;;
1677;SDS011;6034;46.864;15.216;2023-07-24T08:16:47;9.40;;;8.10;;
1677;SDS011;6034;46.864;15.216;2023-07-24T08:19:15;11.70;;;8.23;;
1677;SDS011;6034;46.864;15.216;2023-07-24T08:21:42;12.53;;;9.53;;
1677;SDS011;6034;46.864;15.216;2023-07-24T08:24:09;17.90;;;10.03;;
1677;SDS011;6034;46.864;15.216;2023-07-24T08:26:37;15.07;;;10.33;;
1677;SDS011;6034;46.864;15.216;2023-07-24T08:29:05;11.83;;;8.50;;
1677;SDS011;6034;46.864;15.216;2023-07-24T08:31:34;10.23;;;8.70;;
1677;SDS011;6034;46.864;15.216;2023-07-24T08:34:01;10.13;;;9.13;;
1677;SDS011;6034;46.864;15.216;2023-07-24T08:36:28;10.33;;;9.20;;
1677;SDS011;6034;46.864;15.216;2023-07-24T08:38:56;9.80;;;8.80;;
1677;SDS011;6034;46.864;15.216;2023-07-24T08:41:23;10.47;;;8.93;;
1677;SDS011;6034;46.864;15.216;2023-07-24T08:43:50;11.47;;;8.80;;
1677;SDS011;6034;46.864;15.216;2023-07-24T08:46:19;9.67;;;8.63;;
1677;SDS011;6034;46.864;15.216;2023-07-24T08:48:48;9.07;;;8.10;;
1677;SDS011;6034;46.864;15.216;2023-07-24T08:51:15;9.80;;;8.73;;
1677;SDS011;6034;46.864;15.216;2023-07-24T08:53:46;10.33;;;9.17;;
1677;SDS011;6034;46.864;15.216;2023-07-24T08:56:15;10.40;;;8.80;;
1677;SDS011;6034;46.864;15.216;2023-07-24T08:58:43;13.73;;;10.30;;
1677;SDS011;6034;46.864;15.216;2023-07-24T09:01:10;11.93;;;10.13;;
1677;SDS011;6034;46.864;15.216;2023-07-24T09:03:37;10.17;;;9.17;;
1677;SDS011;6034;46.864;15.216;2023-07-24T09:06:06;12.83;;;10.70;;
1677;SDS011;6034;46.864;15.216;2023-07-24T09:08:34;12.37;;;9.13;;
1677;SDS011;6034;46.864;15.216;2023-07-24T09:11:03;12.63;;;9.70;;
1677;SDS011;6034;46.864;15.216;2023-07-24T09:13:31;11.67;;;9.90;;
1677;SDS011;6034;46.864;15.216;2023-07-24T09:16:01;10.60;;;9.20;;
1677;SDS011;6034;46.864;15.216;2023-07-24T09:18:38;12.47;;;9.40;;
1677;SDS011;6034;46.864;15.216;2023-07-24T09:21:08;12.53;;;9.70;;
1677;SDS011;6034;46.864;15.216;2023-07-24T09:23:37;10.43;;;9.33;;
1677;SDS011;6034;46.864;15.216;2023-07-24T09:26:06;18.77;;;10.93;;
1677;SDS011;6034;46.864;15.216;2023-07-24T09:28:34;9.87;;;8.57;;
1677;SDS011;6034;46.864;15.216;2023-07-24T09:31:02;12.53;;;9.70;;
1677;SDS011;6034;46.864;15.216;2023-07-24T09:33:36;9.87;;;8.90;;
1677;SDS011;6034;46.864;15.216;2023-07-24T09:36:04;11.30;;;9.83;;
1677;SDS011;6034;46.864;15.216;2023-07-24T09:38:35;10.50;;;9.17;;
1677;SDS011;6034;46.864;15.216;2023-07-24T09:41:02;11.03;;;9.80;;
1677;SDS011;6034;46.864;15.216;2023-07-24T09:43:32;11.93;;;10.23;;
1677;SDS011;6034;46.864;15.216;2023-07-24T09:46:00;10.37;;;9.30;;
1677;SDS011;6034;46.864;15.216;2023-07-24T09:48:30;14.57;;;9.63;;
1677;SDS011;6034;46.864;15.216;2023-07-24T09:50:59;13.67;;;10.30;;
1677;SDS011;6034;46.864;15.216;2023-07-24T09:53:29;12.50;;;9.60;;
1677;SDS011;6034;46.864;15.216;2023-07-24T09:56:02;10.77;;;9.33;;
1677;SDS011;6034;46.864;15.216;2023-07-24T09:58:32;10.57;;;9.53;;
1677;SDS011;6034;46.864;15.216;2023-07-24T10:01:01;11.37;;;10.27;;
1677;SDS011;6034;46.864;15.216;2023-07-24T10:03:31;11.20;;;9.70;;
1677;SDS011;6034;46.864;15.216;2023-07-24T10:06:00;15.00;;;11.83;;
1677;SDS011;6034;46.864;15.216;2023-07-24T10:08:27;11.57;;;10.37;;
1677;SDS011;6034;46.864;15.216;2023-07-24T10:10:56;10.30;;;9.23;;
1677;SDS011;6034;46.864;15.216;2023-07-24T10:13:26;12.03;;;9.37;;
1677;SDS011;6034;46.864;15.216;2023-07-24T10:15:54;12.30;;;9.77;;
1677;SDS011;6034;46.864;15.216;2023-07-24T10:18:25;10.77;;;9.60;;
1677;SDS011;6034;46.864;15.216;2023-07-24T10:20:59;10.57;;;9.40;;
1677;SDS011;6034;46.864;15.216;2023-07-24T10:23:27;12.17;;;9.53;;
1677;SDS011;6034;46.864;15.216;2023-07-24T10:26:01;47.10;;;19.33;;
1677;SDS011;6034;46.864;15.216;2023-07-24T10:28:32;12.17;;;10.00;;
1677;SDS011;6034;46.864;15.216;2023-07-24T10:31:00;15.13;;;10.07;;
1677;SDS011;6034;46.864;15.216;2023-07-24T10:33:29;10.80;;;9.70;;
1677;SDS011;6034;46.864;15.216;2023-07-24T10:36:03;11.87;;;10.63;;
1677;SDS011;6034;46.864;15.216;2023-07-24T10:38:34;13.37;;;11.97;;
1677;SDS011;6034;46.864;15.216;2023-07-24T10:41:04;11.83;;;10.70;;
1677;SDS011;6034;46.864;15.216;2023-07-24T10:43:41;10.77;;;9.67;;
1677;SDS011;6034;46.864;15.216;2023-07-24T10:46:09;11.83;;;10.50;;
1677;SDS011;6034;46.864;15.216;2023-07-24T10:48:37;12.93;;;11.27;;
1677;SDS011;6034;46.864;15.216;2023-07-24T10:51:08;12.03;;;10.83;;
1677;SDS011;6034;46.864;15.216;2023-07-24T10:53:41;12.17;;;10.70;;
1677;SDS011;6034;46.864;15.216;2023-07-24T10:58:43;11.90;;;10.67;;
1677;SDS011;6034;46.864;15.216;2023-07-24T11:01:10;11.87;;;10.77;;
1677;SDS011;6034;46.864;15.216;2023-07-24T11:03:39;12.70;;;11.17;;
1677;SDS011;6034;46.864;15.216;2023-07-24T11:06:12;11.10;;;10.00;;
1677;SDS011;6034;46.864;15.216;2023-07-24T11:08:40;11.20;;;9.83;;
1677;SDS011;6034;46.864;15.216;2023-07-24T11:11:08;11.90;;;10.17;;
1677;SDS011;6034;46.864;15.216;2023-07-24T11:13:37;11.77;;;10.13;;
1677;SDS011;6034;46.864;15.216;2023-07-24T11:16:06;11.80;;;10.63;;
1677;SDS011;6034;46.864;15.216;2023-07-24T11:18:43;10.80;;;9.70;;
1677;SDS011;6034;46.864;15.216;2023-07-24T11:21:12;11.73;;;10.00;;
1677;SDS011;6034;46.864;15.216;2023-07-24T11:23:44;13.50;;;11.57;;
1677;SDS011;6034;46.864;15.216;2023-07-24T11:26:13;14.17;;;11.47;;
1677;SDS011;6034;46.864;15.216;2023-07-24T11:28:41;13.30;;;10.83;;
1677;SDS011;6034;46.864;15.216;2023-07-24T11:31:10;14.50;;;12.17;;
1677;SDS011;6034;46.864;15.216;2023-07-24T11:33:37;13.70;;;12.13;;
1677;SDS011;6034;46.864;15.216;2023-07-24T11:36:05;13.30;;;11.90;;
1677;SDS011;6034;46.864;15.216;2023-07-24T11:38:33;22.30;;;11.97;;
1677;SDS011;6034;46.864;15.216;2023-07-24T11:41:01;18.03;;;13.20;;
1677;SDS011;6034;46.864;15.216;2023-07-24T11:43:29;15.83;;;10.63;;
1677;SDS011;6034;46.864;15.216;2023-07-24T11:45:56;13.10;;;11.70;;
1677;SDS011;6034;46.864;15.216;2023-07-24T11:48:26;14.00;;;10.73;;
1677;SDS011;6034;46.864;15.216;2023-07-24T11:50:55;13.57;;;10.87;;
1677;SDS011;6034;46.864;15.216;2023-07-24T11:53:25;12.87;;;10.80;;
1677;SDS011;6034;46.864;15.216;2023-07-24T11:55:56;14.73;;;10.93;;
1677;SDS011;6034;46.864;15.216;2023-07-24T11:58:25;23.57;;;12.53;;
1677;SDS011;6034;46.864;15.216;2023-07-24T12:00:55;12.97;;;10.47;;
1677;SDS011;6034;46.864;15.216;2023-07-24T12:03:24;13.53;;;10.57;;
1677;SDS011;6034;46.864;15.216;2023-07-24T12:05:54;12.10;;;10.30;;
1677;SDS011;6034;46.864;15.216;2023-07-24T12:08:29;14.30;;;11.77;;
1677;SDS011;6034;46.864;15.216;2023-07-24T12:10:57;14.33;;;10.70;;
1677;SDS011;6034;46.864;15.216;2023-07-24T12:13:25;13.87;;;10.73;;
1677;SDS011;6034;46.864;15.216;2023-07-24T12:15:52;16.10;;;11.77;;
1677;SDS011;6034;46.864;15.216;2023-07-24T12:18:19;13.83;;;10.60;;
1677;SDS011;6034;46.864;15.216;2023-07-24T12:20:48;14.83;;;11.17;;
1677;SDS011;6034;46.864;15.216;2023-07-24T12:23:15;13.07;;;10.53;;
1677;SDS011;6034;46.864;15.216;2023-07-24T12:25:43;22.03;;;13.67;;
1677;SDS011;6034;46.864;15.216;2023-07-24T12:28:10;15.47;;;12.00;;
1677;SDS011;6034;46.864;15.216;2023-07-24T12:30:37;13.77;;;11.93;;
1677;SDS011;6034;46.864;15.216;2023-07-24T12:33:05;14.43;;;11.73;;
1677;SDS011;6034;46.864;15.216;2023-07-24T12:35:32;18.57;;;12.73;;
1677;SDS011;6034;46.864;15.216;2023-07-24T12:38:00;16.40;;;10.70;;
1677;SDS011;6034;46.864;15.216;2023-07-24T12:40:28;14.93;;;11.30;;
1677;SDS011;6034;46.864;15.216;2023-07-24T12:42:55;22.93;;;12.87;;
1677;SDS011;6034;46.864;15.216;2023-07-24T12:45:22;13.77;;;11.30;;
1677;SDS011;6034;46.864;15.216;2023-07-24T12:47:49;15.33;;;11.23;;
1677;SDS011;6034;46.864;15.216;2023-07-24T12:50:16;12.33;;;10.90;;
1677;SDS011;6034;46.864;15.216;2023-07-24T12:52:44;13.83;;;12.43;;
1677;SDS011;6034;46.864;15.216;2023-07-24T12:55:12;13.60;;;12.20;;
1677;SDS011;6034;46.864;15.216;2023-07-24T12:57:41;15.80;;;12.00;;
1677;SDS011;6034;46.864;15.216;2023-07-24T13:00:08;12.63;;;11.07;;
1677;SDS011;6034;46.864;15.216;2023-07-24T13:02:36;15.07;;;11.77;;
1677;SDS011;6034;46.864;15.216;2023-07-24T13:05:03;12.83;;;10.33;;
1677;SDS011;6034;46.864;15.216;2023-07-24T13:07:31;12.47;;;11.03;;
1677;SDS011;6034;46.864;15.216;2023-07-24T13:09:58;12.83;;;11.10;;
1677;SDS011;6034;46.864;15.216;2023-07-24T13:12:27;13.53;;;11.20;;
1677;SDS011;6034;46.864;15.216;2023-07-24T13:14:54;13.77;;;12.20;;
1677;SDS011;6034;46.864;15.216;2023-07-24T13:17:21;14.70;;;11.80;;
1677;SDS011;6034;46.864;15.216;2023-07-24T13:19:48;16.20;;;13.53;;
1677;SDS011;6034;46.864;15.216;2023-07-24T13:22:16;13.37;;;11.80;;
1677;SDS011;6034;46.864;15.216;2023-07-24T13:24:43;14.87;;;11.80;;
1677;SDS011;6034;46.864;15.216;2023-07-24T13:27:10;13.57;;;10.67;;
1677;SDS011;6034;46.864;15.216;2023-07-24T13:29:39;11.50;;;9.80;;
1677;SDS011;6034;46.864;15.216;2023-07-24T13:32:06;11.43;;;10.23;;
1677;SDS011;6034;46.864;15.216;2023-07-24T13:34:34;13.83;;;11.00;;
1677;SDS011;6034;46.864;15.216;2023-07-24T13:37:01;15.20;;;10.87;;
1677;SDS011;6034;46.864;15.216;2023-07-24T13:39:29;13.87;;;11.70;;
1677;SDS011;6034;46.864;15.216;2023-07-24T13:41:56;15.70;;;11.40;;
1677;SDS011;6034;46.864;15.216;2023-07-24T13:44:24;12.00;;;9.97;;
1677;SDS011;6034;46.864;15.216;2023-07-24T13:46:52;11.37;;;10.07;;
1677;SDS011;6034;46.864;15.216;2023-07-24T13:49:21;12.47;;;10.37;;
1677;SDS011;6034;46.864;15.216;2023-07-24T13:51:48;13.47;;;11.20;;
1677;SDS011;6034;46.864;15.216;2023-07-24T13:54:16;13.37;;;11.47;;
1677;SDS011;6034;46.864;15.216;2023-07-24T13:56:43;13.27;;;11.33;;
1677;SDS011;6034;46.864;15.216;2023-07-24T13:59:11;12.57;;;10.43;;
1677;SDS011;6034;46.864;15.216;2023-07-24T14:01:39;13.60;;;9.67;;
1677;SDS011;6034;46.864;15.216;2023-07-24T14:04:16;12.50;;;10.20;;
1677;SDS011;6034;46.864;15.216;2023-07-24T14:06:43;11.00;;;9.70;;
1677;SDS011;6034;46.864;15.216;2023-07-24T14:09:11;14.67;;;11.10;;
1677;SDS011;6034;46.864;15.216;2023-07-24T14:11:39;11.33;;;9.83;;
1677;SDS011;6034;46.864;15.216;2023-07-24T14:14:06;12.60;;;10.30;;
1677;SDS011;6034;46.864;15.216;2023-07-24T14:16:34;12.50;;;10.30;;
1677;SDS011;6034;46.864;15.216;2023-07-24T14:19:01;11.77;;;10.10;;
1677;SDS011;6034;46.864;15.216;2023-07-24T14:21:30;13.20;;;10.13;;
1677;SDS011;6034;46.864;15.216;2023-07-24T14:23:57;13.90;;;10.60;;
1677;SDS011;6034;46.864;15.216;2023-07-24T14:26:25;10.83;;;9.10;;
1677;SDS011;6034;46.864;15.216;2023-07-24T14:28:53;8.93;;;8.03;;
1677;SDS011;6034;46.864;15.216;2023-07-24T14:31:20;11.43;;;8.53;;
1677;SDS011;6034;46.864;15.216;2023-07-24T14:33:48;6.97;;;5.97;;
1677;SDS011;6034;46.864;15.216;2023-07-24T14:36:16;6.03;;;4.70;;
1677;SDS011;6034;46.864;15.216;2023-07-24T14:38:46;6.60;;;5.70;;
1677;SDS011;6034;46.864;15.216;2023-07-24T14:41:15;7.13;;;5.40;;
1677;SDS011;6034;46.864;15.216;2023-07-24T14:43:42;8.63;;;6.20;;
1677;SDS011;6034;46.864;15.216;2023-07-24T14:46:10;95.97;;;18.93;;
1677;SDS011;6034;46.864;15.216;2023-07-24T14:48:39;8.33;;;6.03;;
1677;SDS011;6034;46.864;15.216;2023-07-24T14:51:07;6.97;;;5.40;;
1677;SDS011;6034;46.864;15.216;2023-07-24T14:53:35;5.90;;;4.43;;
1677;SDS011;6034;46.864;15.216;2023-07-24T14:56:06;8.27;;;5.23;;
1677;SDS011;6034;46.864;15.216;2023-07-24T14:58:33;7.40;;;5.00;;
1677;SDS011;6034;46.864;15.216;2023-07-24T15:01:02;5.03;;;4.07;;
1677;SDS011;6034;46.864;15.216;2023-07-24T15:03:29;5.67;;;4.50;;
1677;SDS011;6034;46.864;15.216;2023-07-24T15:05:57;5.50;;;4.60;;
1677;SDS011;6034;46.864;15.216;2023-07-24T15:08:29;7.77;;;5.67;;
1677;SDS011;6034;46.864;15.216;2023-07-24T15:10:57;4.83;;;4.30;;
1677;SDS011;6034;46.864;15.216;2023-07-24T15:13:30;6.50;;;5.03;;
1677;SDS011;6034;46.864;15.216;2023-07-24T15:15:58;6.17;;;4.10;;
1677;SDS011;6034;46.864;15.216;2023-07-24T15:18:27;5.53;;;4.23;;
1677;SDS011;6034;46.864;15.216;2023-07-24T15:20:55;20.47;;;6.97;;
1677;SDS011;6034;46.864;15.216;2023-07-24T15:23:24;5.50;;;3.70;;
1677;SDS011;6034;46.864;15.216;2023-07-24T15:25:52;11.10;;;5.07;;
1677;SDS011;6034;46.864;15.216;2023-07-24T15:28:21;4.83;;;3.60;;
1677;SDS011;6034;46.864;15.216;2023-07-24T15:30:52;4.50;;;3.07;;
1677;SDS011;6034;46.864;15.216;2023-07-24T15:33:21;7.40;;;3.60;;
1677;SDS011;6034;46.864;15.216;2023-07-24T15:35:50;5.00;;;2.93;;
1677;SDS011;6034;46.864;15.216;2023-07-24T15:38:18;10.57;;;3.67;;
1677;SDS011;6034;46.864;15.216;2023-07-24T15:40:46;7.40;;;3.10;;
1677;SDS011;6034;46.864;15.216;2023-07-24T15:43:13;7.50;;;4.30;;
1677;SDS011;6034;46.864;15.216;2023-07-24T15:45:41;6.60;;;3.13;;
1677;SDS011;6034;46.864;15.216;2023-07-24T15:48:11;4.10;;;2.83;;
1677;SDS011;6034;46.864;15.216;2023-07-24T15:50:38;6.67;;;3.80;;
1677;SDS011;6034;46.864;15.216;2023-07-24T15:53:05;6.60;;;3.20;;
1677;SDS011;6034;46.864;15.216;2023-07-24T15:55:32;9.57;;;3.30;;
1677;SDS011;6034;46.864;15.216;2023-07-24T15:58:00;5.70;;;3.00;;
1677;SDS011;6034;46.864;15.216;2023-07-24T16:00:27;6.07;;;3.03;;
1677;SDS011;6034;46.864;15.216;2023-07-24T16:02:55;5.80;;;3.20;;
1677;SDS011;6034;46.864;15.216;2023-07-24T16:05:24;6.60;;;3.10;;
1677;SDS011;6034;46.864;15.216;2023-07-24T16:07:51;5.30;;;3.10;;
1677;SDS011;6034;46.864;15.216;2023-07-24T16:10:20;7.43;;;3.80;;
1677;SDS011;6034;46.864;15.216;2023-07-24T16:12:48;3.60;;;2.37;;
1677;SDS011;6034;46.864;15.216;2023-07-24T16:15:15;4.97;;;3.10;;
1677;SDS011;6034;46.864;15.216;2023-07-24T16:17:43;4.13;;;2.80;;
1677;SDS011;6034;46.864;15.216;2023-07-24T16:20:10;5.00;;;3.10;;
1677;SDS011;6034;46.864;15.216;2023-07-24T16:22:39;5.40;;;2.70;;
1677;SDS011;6034;46.864;15.216;2023-07-24T16:25:07;4.60;;;3.30;;
1677;SDS011;6034;46.864;15.216;2023-07-24T16:27:35;4.40;;;3.10;;
1677;SDS011;6034;46.864;15.216;2023-07-24T16:30:02;7.33;;;2.80;;
1677;SDS011;6034;46.864;15.216;2023-07-24T16:32:30;3.27;;;2.00;;
1677;SDS011;6034;46.864;15.216;2023-07-24T16:34:57;5.30;;;2.57;;
1677;SDS011;6034;46.864;15.216;2023-07-24T16:37:24;4.53;;;1.90;;
1677;SDS011;6034;46.864;15.216;2023-07-24T16:39:55;4.93;;;2.23;;
1677;SDS011;6034;46.864;15.216;2023-07-24T16:42:22;4.10;;;2.27;;
1677;SDS011;6034;46.864;15.216;2023-07-24T16:44:50;8.40;;;2.27;;
1677;SDS011;6034;46.864;15.216;2023-07-24T16:47:18;3.30;;;1.90;;
1677;SDS011;6034;46.864;15.216;2023-07-24T16:49:46;3.10;;;2.30;;
1677;SDS011;6034;46.864;15.216;2023-07-24T16:52:13;4.30;;;2.47;;
1677;SDS011;6034;46.864;15.216;2023-07-24T16:54:41;5.03;;;2.30;;
1677;SDS011;6034;46.864;15.216;2023-07-24T16:57:11;5.27;;;2.43;;
1677;SDS011;6034;46.864;15.216;2023-07-24T16:59:39;4.57;;;2.10;;
1677;SDS011;6034;46.864;15.216;2023-07-24T17:02:08;4.20;;;2.17;;
1677;SDS011;6034;46.864;15.216;2023-07-24T17:04:35;7.10;;;2.07;;
1677;SDS011;6034;46.864;15.216;2023-07-24T17:07:02;3.43;;;1.90;;
1677;SDS011;6034;46.864;15.216;2023-07-24T17:09:30;3.93;;;2.43;;
1677;SDS011;6034;46.864;15.216;2023-07-24T17:11:58;6.37;;;2.27;;
1677;SDS011;6034;46.864;15.216;2023-07-24T17:14:29;7.50;;;3.00;;
1677;SDS011;6034;46.864;15.216;2023-07-24T17:16:58;4.63;;;2.90;;
1677;SDS011;6034;46.864;15.216;2023-07-24T17:19:27;6.70;;;2.70;;
1677;SDS011;6034;46.864;15.216;2023-07-24T17:21:55;5.00;;;3.13;;
1677;SDS011;6034;46.864;15.216;2023-07-24T17:24:22;4.63;;;2.70;;
1677;SDS011;6034;46.864;15.216;2023-07-24T17:26:51;4.87;;;2.70;;
1677;SDS011;6034;46.864;15.216;2023-07-24T17:29:18;6.13;;;2.67;;
1677;SDS011;6034;46.864;15.216;2023-07-24T17:31:48;8.50;;;3.13;;
1677;SDS011;6034;46.864;15.216;2023-07-24T17:34:16;4.37;;;2.50;;
1677;SDS011;6034;46.864;15.216;2023-07-24T17:36:47;4.60;;;2.83;;
1677;SDS011;6034;46.864;15.216;2023-07-24T17:39:17;6.23;;;3.27;;
1677;SDS011;6034;46.864;15.216;2023-07-24T17:41:45;7.07;;;3.33;;
1677;SDS011;6034;46.864;15.216;2023-07-24T17:44:13;5.97;;;4.03;;
1677;SDS011;6034;46.864;15.216;2023-07-24T17:46:41;6.53;;;3.20;;
1677;SDS011;6034;46.864;15.216;2023-07-24T17:49:12;7.00;;;3.30;;
1677;SDS011;6034;46.864;15.216;2023-07-24T17:51:42;7.13;;;2.97;;
1677;SDS011;6034;46.864;15.216;2023-07-24T17:54:12;5.07;;;3.47;;
1677;SDS011;6034;46.864;15.216;2023-07-24T17:56:41;8.93;;;3.83;;
1677;SDS011;6034;46.864;15.216;2023-07-24T17:59:09;5.57;;;3.50;;
1677;SDS011;6034;46.864;15.216;2023-07-24T18:01:37;4.90;;;3.30;;
1677;SDS011;6034;46.864;15.216;2023-07-24T18:04:05;5.30;;;3.00;;
1677;SDS011;6034;46.864;15.216;2023-07-24T18:06:36;7.63;;;3.23;;
1677;SDS011;6034;46.864;15.216;2023-07-24T18:09:05;6.50;;;3.90;;
1677;SDS011;6034;46.864;15.216;2023-07-24T18:11:34;8.67;;;3.80;;
1677;SDS011;6034;46.864;15.216;2023-07-24T18:14:03;5.73;;;3.30;;
1677;SDS011;6034;46.864;15.216;2023-07-24T18:16:31;6.00;;;3.73;;
1677;SDS011;6034;46.864;15.216;2023-07-24T18:19:00;8.53;;;3.93;;
1677;SDS011;6034;46.864;15.216;2023-07-24T18:21:29;8.10;;;3.40;;
1677;SDS011;6034;46.864;15.216;2023-07-24T18:24:01;5.70;;;3.37;;
1677;SDS011;6034;46.864;15.216;2023-07-24T18:26:31;5.73;;;3.63;;
1677;SDS011;6034;46.864;15.216;2023-07-24T18:28:59;5.50;;;3.47;;
1677;SDS011;6034;46.864;15.216;2023-07-24T18:31:27;7.80;;;4.20;;
1677;SDS011;6034;46.864;15.216;2023-07-24T18:33:56;8.63;;;4.40;;
1677;SDS011;6034;46.864;15.216;2023-07-24T18:36:25;8.07;;;3.97;;
1677;SDS011;6034;46.864;15.216;2023-07-24T18:38:54;26.10;;;23.30;;
1677;SDS011;6034;46.864;15.216;2023-07-24T18:41:25;11.17;;;9.80;;
1677;SDS011;6034;46.864;15.216;2023-07-24T18:43:54;6.93;;;5.53;;
1677;SDS011;6034;46.864;15.216;2023-07-24T18:46:23;7.00;;;4.87;;
1677;SDS011;6034;46.864;15.216;2023-07-24T18:48:51;5.50;;;4.00;;
1677;SDS011;6034;46.864;15.216;2023-07-24T18:51:19;6.70;;;3.80;;
1677;SDS011;6034;46.864;15.216;2023-07-24T18:53:47;6.13;;;3.87;;
1677;SDS011;6034;46.864;15.216;2023-07-24T18:56:17;5.30;;;3.13;;
1677;SDS011;6034;46.864;15.216;2023-07-24T18:58:49;10.20;;;7.87;;
1677;SDS011;6034;46.864;15.216;2023-07-24T19:01:17;10.03;;;9.00;;
1677;SDS011;6034;46.864;15.216;2023-07-24T19:03:45;7.67;;;4.63;;
1677;SDS011;6034;46.864;15.216;2023-07-24T19:06:15;4.87;;;4.27;;
1677;SDS011;6034;46.864;15.216;2023-07-24T19:08:46;26.37;;;21.57;;
1677;SDS011;6034;46.864;15.216;2023-07-24T19:11:14;16.80;;;13.63;;
1677;SDS011;6034;46.864;15.216;2023-07-24T19:13:42;6.10;;;3.70;;
1677;SDS011;6034;46.864;15.216;2023-07-24T19:16:16;6.17;;;3.80;;
1677;SDS011;6034;46.864;15.216;2023-07-24T19:18:44;6.67;;;3.27;;
1677;SDS011;6034;46.864;15.216;2023-07-24T19:21:12;8.03;;;5.40;;
1677;SDS011;6034;46.864;15.216;2023-07-24T19:23:41;36.27;;;24.60;;
1677;SDS011;6034;46.864;15.216;2023-07-24T19:26:12;43.17;;;31.73;;
1677;SDS011;6034;46.864;15.216;2023-07-24T19:28:40;9.60;;;4.73;;